Time;durP1;ratioP1;P1;durP2;ratioP2;P2;SDS_P1;SDS_P2;PMS_P1;PMS_P2;Temp;Humidity;BMP_temperature;BMP_pressure;BME280_temperature;BME280_humidity;BME280_pressure;Samples;Min_cycle;Max_cycle;Signal;HPM_P1;HPM_P2
2021/01/24 00:00:05;;;;;;;3.33;1.83;;;;;;;;;;5075152;28;20023;-57
2021/01/24 00:02:32;;;;;;;3.60;1.90;;;;;;;;;;5076298;28;20024;-57
2021/01/24 00:04:59;;;;;;;3.27;1.20;;;;;;;;;;5076104;28;20051;-56
2021/01/24 00:07:26;;;;;;;5.93;1.80;;;;;;;;;;5076496;28;20108;-57
2021/01/24 00:09:53;;;;;;;6.53;2.13;;;;;;;;;;5076096;28;20036;-56
2021/01/24 00:12:19;;;;;;;3.80;1.60;;;;;;;;;;5076196;28;20048;-55
2021/01/24 00:14:46;;;;;;;8.67;2.70;;;;;;;;;;5076026;28;20059;-56
2021/01/24 00:17:13;;;;;;;7.03;2.10;;;;;;;;;;5075932;28;20058;-56
2021/01/24 00:19:40;;;;;;;8.00;1.90;;;;;;;;;;5075780;28;20475;-56
2021/01/24 00:22:14;;;;;;;4.53;2.03;;;;;;;;;;5075779;28;20352;-56
2021/01/24 00:24:40;;;;;;;8.32;2.70;;;;;;;;;;5075683;28;20032;-56
2021/01/24 00:27:07;;;;;;;14.37;2.47;;;;;;;;;;5075632;28;20032;-55
2021/01/24 00:29:34;;;;;;;5.77;1.80;;;;;;;;;;5075602;28;20021;-56
2021/01/24 00:32:01;;;;;;;5.63;2.43;;;;;;;;;;5075789;28;20032;-56
2021/01/24 00:34:28;;;;;;;8.60;3.17;;;;;;;;;;5075621;28;20031;-56
2021/01/24 00:36:54;;;;;;;6.17;2.27;;;;;;;;;;5075664;28;20082;-56
2021/01/24 00:39:21;;;;;;;5.00;1.90;;;;;;;;;;5075540;28;20063;-55
2021/01/24 00:41:48;;;;;;;5.83;2.00;;;;;;;;;;5075423;28;20031;-56
2021/01/24 00:44:15;;;;;;;6.53;2.23;;;;;;;;;;5075403;28;20032;-56
2021/01/24 00:46:41;;;;;;;11.50;2.80;;;;;;;;;;5075386;28;20044;-56
2021/01/24 00:49:08;;;;;;;6.27;3.10;;;;;;;;;;5075293;28;20028;-56
2021/01/24 00:51:35;;;;;;;7.17;2.40;;;;;;;;;;5075367;28;20017;-56
2021/01/24 00:54:02;;;;;;;4.13;2.30;;;;;;;;;;5075198;28;20430;-56
2021/01/24 00:56:29;;;;;;;6.27;2.07;;;;;;;;;;5075233;28;20020;-56
2021/01/24 00:58:55;;;;;;;20.07;4.27;;;;;;;;;;5075031;28;20028;-55
2021/01/24 01:01:22;;;;;;;11.63;4.40;;;;;;;;;;5075125;28;20020;-56
2021/01/24 01:03:49;;;;;;;13.47;5.27;;;;;;;;;;5074902;28;20051;-56
2021/01/24 01:06:16;;;;;;;14.47;4.80;;;;;;;;;;5074985;28;20032;-55
2021/01/24 01:08:43;;;;;;;7.00;4.00;;;;;;;;;;5074879;28;20479;-55
2021/01/24 01:11:09;;;;;;;7.43;4.07;;;;;;;;;;5074016;28;20044;-55
2021/01/24 01:13:36;;;;;;;9.93;4.50;;;;;;;;;;5075002;28;20052;-55
2021/01/24 01:16:03;;;;;;;10.87;3.70;;;;;;;;;;5074945;28;20024;-55
2021/01/24 01:18:30;;;;;;;5.63;2.90;;;;;;;;;;5074562;28;20036;-55
2021/01/24 01:20:57;;;;;;;10.23;5.50;;;;;;;;;;5074809;28;20024;-55
2021/01/24 01:23:24;;;;;;;11.67;5.97;;;;;;;;;;5074672;28;20107;-55
2021/01/24 01:25:54;;;;;;;8.93;4.20;;;;;;;;;;5074581;28;20028;-55
2021/01/24 01:28:21;;;;;;;14.87;4.90;;;;;;;;;;5074474;28;20028;-55
2021/01/24 01:30:48;;;;;;;9.00;4.07;;;;;;;;;;5074670;28;20063;-55
2021/01/24 01:33:15;;;;;;;17.70;7.67;;;;;;;;;;5074470;28;20027;-55
2021/01/24 01:35:42;;;;;;;11.20;5.17;;;;;;;;;;5074597;28;20055;-55
2021/01/24 01:38:09;;;;;;;14.67;5.53;;;;;;;;;;5074355;28;20058;-55
2021/01/24 01:40:36;;;;;;;14.30;4.27;;;;;;;;;;5074236;28;20032;-55
2021/01/24 01:43:02;;;;;;;9.23;3.77;;;;;;;;;;5074274;28;20029;-55
2021/01/24 01:45:29;;;;;;;8.90;4.10;;;;;;;;;;5074109;28;20056;-55
2021/01/24 01:47:57;;;;;;;9.83;4.30;;;;;;;;;;5074067;28;20024;-55
2021/01/24 01:50:25;;;;;;;8.40;4.07;;;;;;;;;;5074011;28;20498;-55
2021/01/24 01:52:51;;;;;;;5.47;3.17;;;;;;;;;;5074168;28;20024;-55
2021/01/24 01:55:18;;;;;;;47.53;24.13;;;;;;;;;;5074104;28;20033;-55
2021/01/24 01:57:45;;;;;;;51.23;28.50;;;;;;;;;;5073878;28;20036;-55
2021/01/24 02:00:12;;;;;;;42.60;22.93;;;;;;;;;;5074002;28;20032;-55
2021/01/24 02:02:48;;;;;;;27.67;15.97;;;;;;;;;;5073897;28;20437;-55
2021/01/24 02:05:23;;;;;;;39.33;19.60;;;;;;;;;;5073773;28;20037;-55
2021/01/24 02:08:10;;;;;;;32.33;15.55;;;;;;;;;;5073833;28;20030;-55
2021/01/24 02:10:37;;;;;;;20.67;10.70;;;;;;;;;;5073759;28;20029;-55
2021/01/24 02:13:07;;;;;;;21.50;10.93;;;;;;;;;;5073900;28;20048;-55
2021/01/24 02:15:34;;;;;;;18.17;8.37;;;;;;;;;;5073659;28;20074;-55
2021/01/24 02:18:03;;;;;;;18.13;9.10;;;;;;;;;;5073530;28;20024;-55
2021/01/24 02:21:08;;;;;;;30.53;13.37;;;;;;;;;;5073697;28;20116;-55
2021/01/24 02:23:35;;;;;;;36.67;17.50;;;;;;;;;;5011521;28;20232;-55
2021/01/24 02:26:12;;;;;;;37.43;20.77;;;;;;;;;;5011655;28;20113;-55
2021/01/24 02:29:01;;;;;;;29.13;15.77;;;;;;;;;;5045866;28;20037;-55
2021/01/24 02:31:28;;;;;;;39.30;18.83;;;;;;;;;;5073303;28;20394;-55
2021/01/24 02:33:56;;;;;;;27.23;13.20;;;;;;;;;;5073451;28;20033;-55
2021/01/24 02:36:25;;;;;;;26.80;12.10;;;;;;;;;;5073265;28;20029;-55
2021/01/24 02:38:53;;;;;;;20.90;10.60;;;;;;;;;;5055376;28;20483;-55
2021/01/24 02:41:20;;;;;;;22.00;11.07;;;;;;;;;;5073219;28;20406;-55
2021/01/24 02:43:48;;;;;;;24.90;12.07;;;;;;;;;;5073229;28;20041;-55
2021/01/24 02:46:16;;;;;;;25.50;13.57;;;;;;;;;;5073155;28;20028;-55
2021/01/24 02:48:51;;;;;;;26.10;13.13;;;;;;;;;;5072788;28;20433;-55
2021/01/24 02:51:18;;;;;;;17.40;10.13;;;;;;;;;;5073147;28;20039;-55
2021/01/24 02:53:46;;;;;;;16.40;8.83;;;;;;;;;;5072974;28;20107;-55
2021/01/24 02:56:14;;;;;;;19.10;9.17;;;;;;;;;;5072842;28;20029;-54
2021/01/24 02:58:42;;;;;;;13.03;6.63;;;;;;;;;;5072952;28;20111;-55
2021/01/24 03:01:09;;;;;;;18.20;8.10;;;;;;;;;;5072890;28;20031;-55
2021/01/24 03:03:36;;;;;;;16.53;8.50;;;;;;;;;;5072678;28;20029;-55
2021/01/24 03:06:03;;;;;;;16.23;7.73;;;;;;;;;;5072705;28;20414;-55
2021/01/24 03:08:29;;;;;;;15.80;5.93;;;;;;;;;;5054837;28;20464;-55
2021/01/24 03:10:56;;;;;;;7.20;3.93;;;;;;;;;;5073080;28;20032;-55
2021/01/24 03:13:25;;;;;;;6.23;3.10;;;;;;;;;;5072704;28;20499;-55
2021/01/24 03:15:54;;;;;;;7.23;4.07;;;;;;;;;;5072726;28;20475;-55
2021/01/24 03:18:25;;;;;;;10.07;4.07;;;;;;;;;;5072722;28;20020;-55
2021/01/24 03:20:54;;;;;;;8.93;4.30;;;;;;;;;;5072777;28;20060;-55
2021/01/24 03:23:22;;;;;;;7.40;3.63;;;;;;;;;;5072611;28;20036;-55
2021/01/24 03:25:49;;;;;;;11.73;4.10;;;;;;;;;;5054808;28;20475;-55
2021/01/24 03:28:16;;;;;;;7.30;3.77;;;;;;;;;;5072464;28;20029;-55
2021/01/24 03:30:43;;;;;;;8.07;3.57;;;;;;;;;;5072745;28;20036;-55
2021/01/24 03:33:10;;;;;;;7.43;3.90;;;;;;;;;;5072623;28;20020;-55
2021/01/24 03:35:37;;;;;;;8.33;3.50;;;;;;;;;;5076351;28;20029;-55
2021/01/24 03:38:07;;;;;;;11.43;3.03;;;;;;;;;;5076665;28;20025;-54
2021/01/24 03:40:33;;;;;;;10.27;2.67;;;;;;;;;;5076693;28;20025;-55
2021/01/24 03:43:00;;;;;;;4.17;1.83;;;;;;;;;;5076453;28;20025;-54
2021/01/24 03:45:27;;;;;;;7.37;2.50;;;;;;;;;;5076449;28;20039;-55
2021/01/24 03:47:54;;;;;;;6.27;2.00;;;;;;;;;;5076307;28;20479;-55
2021/01/24 03:50:20;;;;;;;15.17;4.30;;;;;;;;;;5076528;28;20428;-54
2021/01/24 03:52:47;;;;;;;7.83;2.43;;;;;;;;;;5076204;28;20024;-54
2021/01/24 03:55:14;;;;;;;3.40;1.73;;;;;;;;;;5058498;28;20062;-55
2021/01/24 03:57:41;;;;;;;5.17;2.20;;;;;;;;;;5076294;28;20028;-54
2021/01/24 04:00:08;;;;;;;4.83;2.00;;;;;;;;;;5076362;28;20020;-55
2021/01/24 04:02:35;;;;;;;5.03;2.17;;;;;;;;;;5076178;28;20028;-54
2021/01/24 04:05:02;;;;;;;13.00;1.97;;;;;;;;;;5076002;28;20398;-55
2021/01/24 04:07:28;;;;;;;6.77;2.37;;;;;;;;;;5076159;28;20052;-55
2021/01/24 04:09:55;;;;;;;6.47;2.00;;;;;;;;;;5075871;28;20020;-55
2021/01/24 04:12:22;;;;;;;6.43;2.17;;;;;;;;;;5058315;28;20507;-55
2021/01/24 04:14:49;;;;;;;6.77;2.20;;;;;;;;;;5057997;28;20081;-55
2021/01/24 04:17:15;;;;;;;8.70;2.73;;;;;;;;;;5058355;28;20066;-54
2021/01/24 04:19:42;;;;;;;4.13;2.47;;;;;;;;;;5075899;28;20126;-55
2021/01/24 04:22:09;;;;;;;7.70;2.63;;;;;;;;;;5075828;28;20021;-55
2021/01/24 04:24:36;;;;;;;8.23;2.23;;;;;;;;;;5075667;28;20166;-55
2021/01/24 04:27:03;;;;;;;4.90;2.10;;;;;;;;;;5075923;28;20028;-55
2021/01/24 04:29:29;;;;;;;6.30;2.10;;;;;;;;;;5075654;28;20024;-55
2021/01/24 04:31:56;;;;;;;5.80;2.17;;;;;;;;;;5058150;28;20025;-55
2021/01/24 04:34:23;;;;;;;3.87;2.03;;;;;;;;;;5075550;28;20020;-55
2021/01/24 04:36:49;;;;;;;3.97;1.47;;;;;;;;;;5075526;28;20032;-54
2021/01/24 04:39:16;;;;;;;3.50;1.63;;;;;;;;;;5075483;28;20032;-55
2021/01/24 04:41:43;;;;;;;4.53;1.60;;;;;;;;;;5075434;28;20023;-55
2021/01/24 04:44:10;;;;;;;6.07;2.03;;;;;;;;;;5075503;28;20040;-55
2021/01/24 04:46:37;;;;;;;4.03;2.07;;;;;;;;;;5073902;28;20401;-54
2021/01/24 04:49:04;;;;;;;5.23;1.83;;;;;;;;;;5075348;28;20071;-55
2021/01/24 04:51:31;;;;;;;3.97;2.00;;;;;;;;;;5075249;28;20383;-54
2021/01/24 04:53:59;;;;;;;5.53;2.00;;;;;;;;;;5075375;28;20027;-55
2021/01/24 04:56:26;;;;;;;5.40;2.03;;;;;;;;;;5075279;28;20016;-55
2021/01/24 04:58:55;;;;;;;16.03;3.17;;;;;;;;;;5075122;28;20071;-55
2021/01/24 05:01:24;;;;;;;5.37;2.10;;;;;;;;;;5075128;28;20025;-55
2021/01/24 05:03:51;;;;;;;4.70;2.23;;;;;;;;;;5074972;28;20025;-54
2021/01/24 05:06:18;;;;;;;5.33;2.50;;;;;;;;;;5074993;28;20052;-54
2021/01/24 05:08:45;;;;;;;3.93;2.13;;;;;;;;;;5074877;28;20025;-54
2021/01/24 05:11:12;;;;;;;4.40;2.00;;;;;;;;;;5075430;28;20024;-54
2021/01/24 05:13:39;;;;;;;4.20;1.97;;;;;;;;;;5075046;28;20040;-55
2021/01/24 05:16:06;;;;;;;6.77;2.23;;;;;;;;;;5074808;28;20089;-55
2021/01/24 05:18:33;;;;;;;5.03;1.67;;;;;;;;;;5074707;28;20040;-54
2021/01/24 05:21:02;;;;;;;3.60;1.80;;;;;;;;;;5074729;28;20024;-54
2021/01/24 05:23:29;;;;;;;3.67;1.80;;;;;;;;;;5074777;28;20032;-54
2021/01/24 05:25:57;;;;;;;11.47;1.87;;;;;;;;;;5074619;28;20074;-54
2021/01/24 05:28:25;;;;;;;3.50;2.00;;;;;;;;;;5074597;28;20029;-55
2021/01/24 05:30:52;;;;;;;3.40;1.63;;;;;;;;;;5074609;28;20025;-54
2021/01/24 05:33:20;;;;;;;3.10;1.50;;;;;;;;;;5074531;28;20017;-54
2021/01/24 05:35:48;;;;;;;5.57;1.53;;;;;;;;;;5074616;28;20032;-55
2021/01/24 05:38:27;;;;;;;7.60;1.60;;;;;;;;;;5074498;28;20048;-55
2021/01/24 05:40:54;;;;;;;3.70;1.30;;;;;;;;;;5074364;28;20086;-54
2021/01/24 05:43:24;;;;;;;4.83;1.60;;;;;;;;;;5074399;28;20025;-53
2021/01/24 05:45:51;;;;;;;6.13;1.60;;;;;;;;;;5074338;28;20473;-54
2021/01/24 05:48:18;;;;;;;6.97;2.20;;;;;;;;;;5074073;28;20024;-55
2021/01/24 05:50:46;;;;;;;5.27;1.97;;;;;;;;;;5074873;28;20410;-55
2021/01/24 05:53:13;;;;;;;3.50;1.63;;;;;;;;;;5073998;28;20025;-55
2021/01/24 05:55:41;;;;;;;4.83;1.43;;;;;;;;;;5074348;28;20028;-54
2021/01/24 05:58:18;;;;;;;5.33;1.60;;;;;;;;;;5073538;28;20111;-54
2021/01/24 06:00:45;;;;;;;6.17;1.63;;;;;;;;;;5073843;28;20394;-54
2021/01/24 06:03:12;;;;;;;4.50;1.50;;;;;;;;;;5073952;28;20036;-54
2021/01/24 06:05:39;;;;;;;3.70;1.53;;;;;;;;;;5073654;28;20039;-55
2021/01/24 06:08:07;;;;;;;2.50;1.43;;;;;;;;;;5073816;28;20075;-54
2021/01/24 06:10:34;;;;;;;3.53;1.50;;;;;;;;;;5073744;28;20127;-55
2021/01/24 06:13:02;;;;;;;3.10;1.37;;;;;;;;;;5073906;28;20085;-54
2021/01/24 06:15:29;;;;;;;5.60;1.40;;;;;;;;;;5073587;28;20424;-54
2021/01/24 06:17:58;;;;;;;2.47;0.97;;;;;;;;;;5073555;28;20028;-53
2021/01/24 06:20:28;;;;;;;6.60;1.10;;;;;;;;;;5073600;28;20589;-54
2021/01/24 06:23:03;;;;;;;1.93;0.90;;;;;;;;;;5073565;28;20340;-54
2021/01/24 06:25:32;;;;;;;2.28;1.10;;;;;;;;;;5073653;28;20282;-54
2021/01/24 06:28:04;;;;;;;2.10;0.87;;;;;;;;;;5073060;28;20115;-54
2021/01/24 06:30:31;;;;;;;3.77;1.00;;;;;;;;;;5073207;28;20383;-54
2021/01/24 06:33:12;;;;;;;1.93;1.00;;;;;;;;;;5073371;28;20273;-54
2021/01/24 06:35:44;;;;;;;1.57;1.00;;;;;;;;;;5073455;28;20257;-54
2021/01/24 06:38:11;;;;;;;1.23;0.80;;;;;;;;;;5073397;28;20052;-54
2021/01/24 06:40:43;;;;;;;2.07;1.10;;;;;;;;;;5073105;28;20263;-54
2021/01/24 06:43:10;;;;;;;2.77;1.13;;;;;;;;;;5073161;28;20256;-54
2021/01/24 06:45:37;;;;;;;2.30;1.20;;;;;;;;;;5072974;28;20811;-54
2021/01/24 06:48:04;;;;;;;1.60;0.90;;;;;;;;;;5073113;28;20639;-54
2021/01/24 06:50:51;;;;;;;1.23;0.70;;;;;;;;;;5072995;28;20813;-54
2021/01/24 06:53:27;;;;;;;2.30;0.77;;;;;;;;;;5073108;28;20261;-54
2021/01/24 06:56:09;;;;;;;1.80;1.07;;;;;;;;;;5073111;28;20334;-54
2021/01/24 06:58:49;;;;;;;2.80;1.00;;;;;;;;;;5072906;28;20253;-54
2021/01/24 07:01:32;;;;;;;3.60;0.90;;;;;;;;;;5072909;28;20268;-54
2021/01/24 07:04:17;;;;;;;2.70;1.10;;;;;;;;;;5072799;28;20313;-54
2021/01/24 07:06:45;;;;;;;2.05;0.80;;;;;;;;;;5072904;28;20242;-54
2021/01/24 07:09:30;;;;;;;5.67;1.00;;;;;;;;;;5071999;28;20039;-54
2021/01/24 07:11:58;;;;;;;1.98;0.80;;;;;;;;;;5073047;28;20809;-54
2021/01/24 07:14:37;;;;;;;3.07;1.67;;;;;;;;;;5072911;28;20039;-54
2021/01/24 07:17:06;;;;;;;2.50;1.40;;;;;;;;;;5072672;28;20257;-54
2021/01/24 07:19:33;;;;;;;6.63;1.67;;;;;;;;;;5072645;28;20257;-54
2021/01/24 07:22:00;;;;;;;5.37;2.17;;;;;;;;;;5072703;28;20281;-54
2021/01/24 07:24:27;;;;;;;6.97;2.00;;;;;;;;;;5072556;28;20836;-54
2021/01/24 07:26:57;;;;;;;3.43;1.47;;;;;;;;;;5072788;28;20253;-54
2021/01/24 07:29:24;;;;;;;3.67;1.47;;;;;;;;;;5072799;28;20333;-54
2021/01/24 07:31:51;;;;;;;3.10;1.17;;;;;;;;;;5072777;28;20257;-54
2021/01/24 07:34:25;;;;;;;4.47;1.70;;;;;;;;;;5072399;28;20258;-54
2021/01/24 07:36:53;;;;;;;5.07;2.00;;;;;;;;;;5072557;28;20253;-54
2021/01/24 07:39:20;;;;;;;4.30;1.90;;;;;;;;;;5072468;28;20290;-54
2021/01/24 07:41:50;;;;;;;7.77;2.00;;;;;;;;;;5072693;28;20253;-54
2021/01/24 07:44:17;;;;;;;10.03;1.77;;;;;;;;;;5072450;28;20293;-54
2021/01/24 07:46:44;;;;;;;5.23;1.57;;;;;;;;;;5072339;28;20270;-54
2021/01/24 07:49:11;;;;;;;2.23;1.13;;;;;;;;;;5072402;28;20285;-54
2021/01/24 07:51:37;;;;;;;2.83;1.43;;;;;;;;;;5072329;28;20273;-54
2021/01/24 07:54:05;;;;;;;6.10;1.67;;;;;;;;;;5072403;28;20914;-54
2021/01/24 07:56:32;;;;;;;3.83;1.30;;;;;;;;;;5072324;28;20647;-54
2021/01/24 07:58:59;;;;;;;2.87;1.50;;;;;;;;;;5072259;28;20264;-54
2021/01/24 08:01:27;;;;;;;7.40;1.40;;;;;;;;;;5072302;28;20269;-54
2021/01/24 08:03:54;;;;;;;5.63;1.53;;;;;;;;;;5072230;28;20324;-54
2021/01/24 08:06:21;;;;;;;2.10;1.10;;;;;;;;;;5054249;28;20752;-54
2021/01/24 08:08:48;;;;;;;1.83;1.03;;;;;;;;;;5072201;28;20315;-54
2021/01/24 08:11:15;;;;;;;2.77;1.00;;;;;;;;;;5072254;28;20289;-54
2021/01/24 08:13:42;;;;;;;2.50;1.20;;;;;;;;;;5072518;28;20285;-54
2021/01/24 08:16:11;;;;;;;3.00;1.37;;;;;;;;;;5072152;28;20276;-54
2021/01/24 08:18:40;;;;;;;2.30;1.30;;;;;;;;;;5072094;28;20246;-54
2021/01/24 08:21:08;;;;;;;2.00;1.10;;;;;;;;;;5074958;28;20261;-54
2021/01/24 08:23:35;;;;;;;2.07;1.03;;;;;;;;;;5075728;28;20257;-54
2021/01/24 08:26:04;;;;;;;2.50;1.00;;;;;;;;;;5075656;28;20648;-54
2021/01/24 08:28:31;;;;;;;3.03;1.00;;;;;;;;;;5075659;28;20632;-54
2021/01/24 08:31:01;;;;;;;1.70;0.93;;;;;;;;;;5075641;28;20632;-54
2021/01/24 08:33:28;;;;;;;2.27;1.10;;;;;;;;;;5075622;28;20242;-54
2021/01/24 08:36:09;;;;;;;1.63;0.93;;;;;;;;;;5075711;28;20311;-54
2021/01/24 08:38:36;;;;;;;3.80;1.63;;;;;;;;;;5075456;28;20250;-54
2021/01/24 08:41:04;;;;;;;2.13;1.00;;;;;;;;;;5075534;28;20258;-54
2021/01/24 08:43:30;;;;;;;6.93;1.73;;;;;;;;;;5075335;28;20253;-54
2021/01/24 08:46:16;;;;;;;6.43;1.20;;;;;;;;;;5075509;28;20269;-54
2021/01/24 08:48:42;;;;;;;2.55;1.30;;;;;;;;;;5075319;28;20315;-54
2021/01/24 08:51:09;;;;;;;2.57;1.20;;;;;;;;;;5075327;28;20028;-54
2021/01/24 08:53:36;;;;;;;2.73;0.90;;;;;;;;;;5075360;28;20332;-54
2021/01/24 08:56:03;;;;;;;3.20;1.37;;;;;;;;;;5057288;28;20819;-54
2021/01/24 08:58:30;;;;;;;1.97;1.00;;;;;;;;;;5075150;28;20311;-54
2021/01/24 09:01:06;;;;;;;2.23;1.23;;;;;;;;;;5075250;28;20257;-54
2021/01/24 09:03:33;;;;;;;2.77;1.30;;;;;;;;;;5075025;28;20257;-54
2021/01/24 09:06:16;;;;;;;2.30;1.30;;;;;;;;;;5075069;28;20269;-54
2021/01/24 09:08:52;;;;;;;3.07;1.43;;;;;;;;;;5075030;28;20303;-54
2021/01/24 09:11:20;;;;;;;2.93;1.33;;;;;;;;;;5074975;28;20265;-54
2021/01/24 09:13:47;;;;;;;3.50;1.80;;;;;;;;;;5075390;28;20356;-54
2021/01/24 09:16:13;;;;;;;4.67;1.33;;;;;;;;;;5074979;28;20261;-54
2021/01/24 09:18:40;;;;;;;2.00;1.30;;;;;;;;;;5074824;28;20249;-54
2021/01/24 09:21:07;;;;;;;2.60;1.40;;;;;;;;;;5074889;28;20257;-54
2021/01/24 09:23:34;;;;;;;5.23;1.40;;;;;;;;;;5074656;28;20323;-54
2021/01/24 09:26:01;;;;;;;2.07;1.23;;;;;;;;;;5074779;28;20269;-54
2021/01/24 09:28:27;;;;;;;2.37;1.10;;;;;;;;;;5074555;28;20619;-54
2021/01/24 09:30:54;;;;;;;2.03;1.00;;;;;;;;;;5074487;28;20581;-54
2021/01/24 09:33:21;;;;;;;4.30;1.00;;;;;;;;;;5074080;28;20245;-54
2021/01/24 09:35:48;;;;;;;2.17;1.17;;;;;;;;;;5074480;28;20250;-54
2021/01/24 09:38:15;;;;;;;1.67;1.17;;;;;;;;;;5074482;28;20241;-54
2021/01/24 09:40:41;;;;;;;1.83;1.10;;;;;;;;;;5074861;28;20362;-54
2021/01/24 09:43:08;;;;;;;2.97;1.17;;;;;;;;;;5074327;28;20266;-54
2021/01/24 09:45:35;;;;;;;1.70;0.90;;;;;;;;;;5074177;28;20284;-54
2021/01/24 09:48:02;;;;;;;5.13;1.17;;;;;;;;;;5074248;28;20253;-54
2021/01/24 09:50:29;;;;;;;2.27;1.20;;;;;;;;;;5074171;28;20260;-54
2021/01/24 09:52:56;;;;;;;1.90;1.00;;;;;;;;;;5074126;28;20253;-54
2021/01/24 09:55:23;;;;;;;1.70;1.03;;;;;;;;;;5074202;28;20248;-54
2021/01/24 09:57:50;;;;;;;2.03;1.00;;;;;;;;;;5073959;28;20250;-54
2021/01/24 10:00:17;;;;;;;1.57;0.80;;;;;;;;;;5074314;28;20249;-54
2021/01/24 10:02:43;;;;;;;1.60;0.70;;;;;;;;;;5074050;28;20262;-54
2021/01/24 10:05:10;;;;;;;1.50;0.83;;;;;;;;;;5074086;28;20285;-54
2021/01/24 10:07:37;;;;;;;2.50;1.10;;;;;;;;;;5073918;28;20257;-54
2021/01/24 10:10:04;;;;;;;2.40;1.43;;;;;;;;;;5073966;28;20289;-54
2021/01/24 10:12:31;;;;;;;2.60;1.20;;;;;;;;;;5074281;28;20343;-54
2021/01/24 10:14:58;;;;;;;2.77;1.33;;;;;;;;;;5073874;28;20257;-54
2021/01/24 10:17:24;;;;;;;1.87;1.20;;;;;;;;;;5073687;28;20279;-54
2021/01/24 10:19:51;;;;;;;1.50;1.00;;;;;;;;;;5073626;28;20310;-54
2021/01/24 10:22:18;;;;;;;3.60;1.30;;;;;;;;;;5073505;28;20250;-54
2021/01/24 10:24:45;;;;;;;2.00;1.10;;;;;;;;;;5073557;28;20285;-54
2021/01/24 10:27:11;;;;;;;1.83;0.90;;;;;;;;;;5073511;28;20250;-54
2021/01/24 10:29:38;;;;;;;3.13;0.83;;;;;;;;;;5073485;28;20276;-54
2021/01/24 10:32:05;;;;;;;2.77;0.93;;;;;;;;;;5073394;28;20391;-54
2021/01/24 10:34:32;;;;;;;1.83;0.93;;;;;;;;;;5073298;28;20280;-54
2021/01/24 10:36:58;;;;;;;2.20;1.13;;;;;;;;;;5073234;28;20253;-54
2021/01/24 10:39:25;;;;;;;2.00;0.97;;;;;;;;;;5073340;28;20595;-54
2021/01/24 10:41:52;;;;;;;1.40;0.83;;;;;;;;;;5073222;28;20341;-54
2021/01/24 10:44:19;;;;;;;2.17;1.10;;;;;;;;;;5073401;28;20766;-54
2021/01/24 10:46:46;;;;;;;2.30;1.20;;;;;;;;;;5072966;28;20265;-54
2021/01/24 10:49:12;;;;;;;2.30;1.10;;;;;;;;;;5073088;28;20242;-54
2021/01/24 10:51:39;;;;;;;4.50;1.80;;;;;;;;;;5072978;28;20327;-54
2021/01/24 10:54:06;;;;;;;3.97;1.00;;;;;;;;;;5073140;28;20252;-54
2021/01/24 10:56:33;;;;;;;3.00;1.30;;;;;;;;;;5072963;28;20257;-54
2021/01/24 10:58:59;;;;;;;1.97;1.00;;;;;;;;;;5072880;28;20724;-54
2021/01/24 11:01:26;;;;;;;2.93;1.30;;;;;;;;;;5072996;28;20252;-54
2021/01/24 11:03:59;;;;;;;4.43;1.20;;;;;;;;;;5072661;28;20281;-54
2021/01/24 11:06:26;;;;;;;3.23;1.27;;;;;;;;;;5072932;28;20261;-54
2021/01/24 11:08:53;;;;;;;2.40;1.00;;;;;;;;;;5072791;28;20269;-54
2021/01/24 11:11:22;;;;;;;5.00;1.37;;;;;;;;;;5072916;28;20257;-53
2021/01/24 11:13:49;;;;;;;5.40;1.47;;;;;;;;;;5073083;28;20356;-53
2021/01/24 11:16:16;;;;;;;3.77;1.40;;;;;;;;;;5072848;28;20292;-53
2021/01/24 11:18:42;;;;;;;5.80;2.40;;;;;;;;;;5072693;28;20601;-53
2021/01/24 11:21:09;;;;;;;3.83;2.13;;;;;;;;;;5072676;28;20270;-53
2021/01/24 11:23:36;;;;;;;3.47;1.60;;;;;;;;;;5072807;28;20600;-53
2021/01/24 11:26:03;;;;;;;3.33;1.80;;;;;;;;;;5072724;28;20344;-53
2021/01/24 11:28:29;;;;;;;3.90;2.10;;;;;;;;;;5072686;28;20593;-53
2021/01/24 11:30:56;;;;;;;2.40;1.30;;;;;;;;;;5072584;28;20245;-53
2021/01/24 11:33:23;;;;;;;2.63;1.20;;;;;;;;;;5072748;28;20242;-53
2021/01/24 11:35:50;;;;;;;3.17;1.80;;;;;;;;;;5072753;28;20277;-53
2021/01/24 11:38:17;;;;;;;3.50;1.60;;;;;;;;;;5072486;28;20635;-53
2021/01/24 11:40:43;;;;;;;2.60;1.60;;;;;;;;;;5072543;28;20601;-53
2021/01/24 11:43:10;;;;;;;3.13;1.80;;;;;;;;;;5072540;28;20257;-53
2021/01/24 11:45:37;;;;;;;3.83;2.17;;;;;;;;;;5072359;28;20287;-53
2021/01/24 11:48:04;;;;;;;2.87;1.80;;;;;;;;;;5072334;28;20315;-54
2021/01/24 11:50:31;;;;;;;3.73;1.67;;;;;;;;;;5072395;28;20253;-53
2021/01/24 11:52:58;;;;;;;2.53;1.63;;;;;;;;;;5072443;28;20612;-53
2021/01/24 11:55:24;;;;;;;4.30;1.93;;;;;;;;;;5074072;28;20682;-53
2021/01/24 11:57:51;;;;;;;4.87;1.80;;;;;;;;;;5076308;28;20878;-53
2021/01/24 12:00:18;;;;;;;4.17;2.10;;;;;;;;;;5076272;28;20740;-53
2021/01/24 12:02:45;;;;;;;3.93;1.93;;;;;;;;;;5076223;28;20600;-53
2021/01/24 12:05:12;;;;;;;3.80;2.13;;;;;;;;;;5076045;28;20640;-53
2021/01/24 12:07:39;;;;;;;4.13;1.90;;;;;;;;;;5076212;28;20273;-53
2021/01/24 12:10:06;;;;;;;6.70;2.57;;;;;;;;;;5076180;28;20271;-53
2021/01/24 12:12:32;;;;;;;4.80;2.23;;;;;;;;;;5076245;28;20691;-53
2021/01/24 12:14:59;;;;;;;4.57;2.70;;;;;;;;;;5076063;28;20600;-53
2021/01/24 12:17:26;;;;;;;6.03;2.57;;;;;;;;;;5075957;28;20253;-53
2021/01/24 12:19:53;;;;;;;5.33;2.50;;;;;;;;;;5075940;28;20241;-53
2021/01/24 12:22:20;;;;;;;6.13;2.20;;;;;;;;;;5075893;28;20732;-53
2021/01/24 12:24:47;;;;;;;6.90;1.93;;;;;;;;;;5075738;28;20368;-53
2021/01/24 12:27:14;;;;;;;4.80;2.10;;;;;;;;;;5075672;28;20295;-53
2021/01/24 12:29:40;;;;;;;6.90;2.33;;;;;;;;;;5075706;28;20315;-53
2021/01/24 12:32:07;;;;;;;4.27;2.57;;;;;;;;;;5075819;28;20261;-53
2021/01/24 12:34:34;;;;;;;11.97;3.00;;;;;;;;;;5075763;28;20272;-53
2021/01/24 12:37:01;;;;;;;9.30;2.40;;;;;;;;;;5075766;28;20302;-53
2021/01/24 12:39:28;;;;;;;5.47;2.60;;;;;;;;;;5075533;28;20246;-53
2021/01/24 12:41:54;;;;;;;4.70;2.43;;;;;;;;;;5075552;28;20261;-53
2021/01/24 12:44:21;;;;;;;5.67;2.00;;;;;;;;;;5075528;28;20265;-53
2021/01/24 12:46:48;;;;;;;4.80;2.40;;;;;;;;;;5075370;28;20249;-53
2021/01/24 12:49:15;;;;;;;5.40;2.60;;;;;;;;;;5075373;28;20250;-53
2021/01/24 12:51:41;;;;;;;8.07;3.40;;;;;;;;;;5075305;28;20250;-53
2021/01/24 12:54:09;;;;;;;8.87;3.90;;;;;;;;;;5075442;28;20332;-53
2021/01/24 12:56:35;;;;;;;4.83;2.63;;;;;;;;;;5075544;28;20608;-53
2021/01/24 12:59:02;;;;;;;8.87;2.60;;;;;;;;;;5075258;28;20244;-53
2021/01/24 13:01:29;;;;;;;5.77;2.20;;;;;;;;;;5075594;28;20277;-53
2021/01/24 13:03:56;;;;;;;5.90;2.70;;;;;;;;;;5075081;28;20281;-53
2021/01/24 13:06:22;;;;;;;8.27;2.50;;;;;;;;;;5074000;28;20258;-53
2021/01/24 13:08:56;;;;;;;5.70;2.50;;;;;;;;;;5075070;28;20254;-53
2021/01/24 13:11:23;;;;;;;6.17;2.40;;;;;;;;;;5075017;28;20748;-53
2021/01/24 13:13:50;;;;;;;5.47;2.10;;;;;;;;;;5075540;28;20775;-53
2021/01/24 13:16:16;;;;;;;6.20;2.63;;;;;;;;;;5074862;28;20277;-53
2021/01/24 13:18:43;;;;;;;4.30;2.80;;;;;;;;;;5074977;28;20256;-53
2021/01/24 13:21:10;;;;;;;5.50;2.87;;;;;;;;;;5074816;28;20336;-53
2021/01/24 13:23:37;;;;;;;4.90;2.60;;;;;;;;;;5074733;28;20260;-53
2021/01/24 13:26:03;;;;;;;6.33;2.83;;;;;;;;;;5075120;28;20348;-53
2021/01/24 13:28:30;;;;;;;6.37;2.27;;;;;;;;;;5074626;28;20245;-53
2021/01/24 13:30:57;;;;;;;6.27;2.63;;;;;;;;;;5074774;28;20260;-53
2021/01/24 13:33:24;;;;;;;3.90;2.07;;;;;;;;;;5074611;28;20253;-53
2021/01/24 13:35:51;;;;;;;6.57;2.50;;;;;;;;;;5074513;28;20260;-53
2021/01/24 13:38:18;;;;;;;3.87;2.17;;;;;;;;;;5074340;28;20254;-53
2021/01/24 13:40:44;;;;;;;7.63;2.40;;;;;;;;;;5074438;28;20261;-53
2021/01/24 13:43:11;;;;;;;5.00;2.13;;;;;;;;;;5074434;28;20273;-53
2021/01/24 13:45:38;;;;;;;6.17;1.77;;;;;;;;;;5074201;28;20285;-53
2021/01/24 13:48:05;;;;;;;4.73;1.57;;;;;;;;;;5074296;28;20257;-53
2021/01/24 13:50:32;;;;;;;4.60;1.90;;;;;;;;;;5074258;28;20307;-53
2021/01/24 13:52:58;;;;;;;5.73;2.10;;;;;;;;;;5074329;28;20249;-53
2021/01/24 13:55:25;;;;;;;3.93;1.77;;;;;;;;;;5074241;28;20292;-53
2021/01/24 13:57:52;;;;;;;3.87;1.80;;;;;;;;;;5073980;28;20292;-53
2021/01/24 14:00:19;;;;;;;5.03;2.50;;;;;;;;;;5074144;28;20245;-53
2021/01/24 14:02:46;;;;;;;5.10;2.60;;;;;;;;;;5074107;28;20597;-53
2021/01/24 14:05:13;;;;;;;7.43;3.03;;;;;;;;;;5073935;28;20295;-53
2021/01/24 14:07:39;;;;;;;10.67;2.53;;;;;;;;;;5073885;28;20751;-53
2021/01/24 14:10:06;;;;;;;5.27;2.40;;;;;;;;;;5073764;28;20283;-53
2021/01/24 14:12:33;;;;;;;5.33;3.03;;;;;;;;;;5074082;28;20280;-54
2021/01/24 14:15:00;;;;;;;9.20;3.00;;;;;;;;;;5073681;28;20261;-53
2021/01/24 14:17:27;;;;;;;5.43;2.60;;;;;;;;;;5073390;28;20257;-53
2021/01/24 14:19:54;;;;;;;7.43;3.23;;;;;;;;;;5073769;28;20315;-53
2021/01/24 14:22:21;;;;;;;7.23;2.97;;;;;;;;;;5073670;28;20261;-53
2021/01/24 14:24:48;;;;;;;7.33;3.40;;;;;;;;;;5073457;28;20292;-53
2021/01/24 14:27:15;;;;;;;5.20;2.93;;;;;;;;;;5073448;28;20254;-54
2021/01/24 14:29:41;;;;;;;6.77;2.90;;;;;;;;;;5073616;28;20253;-54
2021/01/24 14:32:08;;;;;;;7.17;3.20;;;;;;;;;;5073627;28;20264;-54
2021/01/24 14:34:35;;;;;;;7.77;2.87;;;;;;;;;;5073313;28;20651;-54
2021/01/24 14:37:02;;;;;;;5.20;2.73;;;;;;;;;;5073399;28;20258;-54
2021/01/24 14:39:28;;;;;;;7.40;3.30;;;;;;;;;;5073383;28;20261;-54
2021/01/24 14:41:55;;;;;;;13.23;4.63;;;;;;;;;;5073370;28;20254;-54
2021/01/24 14:44:22;;;;;;;10.63;3.30;;;;;;;;;;5073099;28;20782;-54